Time;durP1;ratioP1;P1;durP2;ratioP2;P2;SDS_P1;SDS_P2;PMS_P1;PMS_P2;Temp;Humidity;BMP_temperature;BMP_pressure;BME280_temperature;BME280_humidity;BME280_pressure;Samples;Min_cycle;Max_cycle;Signal;HPM_P1;HPM_P2
2021/12/31 00:00:28;;;;;;;0.80;0.80;;;;;;;-8.29;87.29;99024.50;4921356;29;20116;-88
2021/12/31 00:02:55;;;;;;;0.75;0.75;;;;;;;-8.26;87.48;99023.44;4923915;29;20135;-90
2021/12/31 00:05:23;;;;;;;0.98;0.98;;;;;;;-8.25;87.28;99014.59;4921310;29;20056;-89
2021/12/31 00:07:50;;;;;;;0.70;0.70;;;;;;;-8.28;87.07;99020.91;4920092;29;20060;-89
2021/12/31 00:10:18;;;;;;;1.00;1.00;;;;;;;-8.31;87.11;99029.03;4919978;29;20056;-90
2021/12/31 00:12:45;;;;;;;0.70;0.70;;;;;;;-8.32;87.29;99022.97;4920173;29;20055;-89
2021/12/31 00:15:14;;;;;;;1.00;1.00;;;;;;;-8.23;87.49;99023.16;4919968;29;20143;-89
2021/12/31 00:17:41;;;;;;;0.90;0.90;;;;;;;-8.22;87.23;99017.00;4920824;29;20084;-89
2021/12/31 00:20:15;;;;;;;0.73;0.73;;;;;;;-8.18;87.25;99023.63;4921336;29;20056;-88
2021/12/31 00:25:20;;;;;;;0.82;0.82;;;;;;;-8.14;87.20;99022.44;4922500;29;20401;-89
2021/12/31 00:27:48;;;;;;;0.77;0.77;;;;;;;-8.13;86.95;99016.22;4929170;29;20051;-85
2021/12/31 00:30:15;;;;;;;0.60;0.60;;;;;;;-8.18;86.65;99018.38;4910327;29;20067;-88
2021/12/31 00:32:43;;;;;;;0.88;0.88;;;;;;;-8.17;86.78;99017.44;4920369;29;20052;-88
2021/12/31 00:35:12;;;;;;;0.80;0.80;;;;;;;-8.21;86.69;99011.63;4920963;29;20052;-88
2021/12/31 00:37:39;;;;;;;0.95;0.95;;;;;;;-8.23;86.78;99002.22;4920245;29;20056;-89
2021/12/31 00:40:09;;;;;;;0.85;0.85;;;;;;;-8.22;86.75;98998.66;4925109;29;20062;-88
2021/12/31 00:42:37;;;;;;;0.75;0.75;;;;;;;-8.24;86.80;98995.34;4924506;29;20496;-87
2021/12/31 00:45:06;;;;;;;0.70;0.70;;;;;;;-8.27;86.73;98985.13;4921103;29;20080;-88
2021/12/31 00:47:33;;;;;;;0.80;0.80;;;;;;;-8.25;86.79;98988.41;4921074;29;20078;-89
2021/12/31 00:50:00;;;;;;;0.70;0.70;;;;;;;-8.27;86.75;98987.75;4920286;29;20095;-88
2021/12/31 00:52:29;;;;;;;0.80;0.80;;;;;;;-8.30;86.79;98992.25;4902497;29;20044;-88
2021/12/31 00:54:56;;;;;;;0.88;0.88;;;;;;;-8.30;86.93;98994.88;4919283;29;20063;-89
2021/12/31 00:57:23;;;;;;;0.88;0.88;;;;;;;-8.24;87.11;98987.47;4919712;29;20052;-88
2021/12/31 00:59:50;;;;;;;0.90;0.90;;;;;;;-8.29;87.13;98983.44;4920510;29;20413;-89
2021/12/31 01:02:19;;;;;;;1.00;1.00;;;;;;;-8.30;86.99;98976.56;4887058;29;20052;-88
2021/12/31 01:04:46;;;;;;;0.90;0.90;;;;;;;-8.32;87.08;98973.22;4919564;29;20067;-89
2021/12/31 01:07:13;;;;;;;0.98;0.98;;;;;;;-8.30;87.08;98979.19;4902637;29;20052;-89
2021/12/31 01:09:40;;;;;;;0.93;0.93;;;;;;;-8.28;87.11;98989.50;4920022;29;20056;-88
2021/12/31 01:12:10;;;;;;;0.80;0.80;;;;;;;-8.25;87.21;98975.31;4905471;29;20048;-89
2021/12/31 01:14:41;;;;;;;0.65;0.65;;;;;;;-8.25;87.13;98975.31;4906908;29;20495;-89
2021/12/31 01:17:12;;;;;;;0.80;0.80;;;;;;;-8.26;87.05;98973.69;4922862;29;20151;-88
2021/12/31 01:19:46;;;;;;;1.00;1.00;;;;;;;-8.29;87.11;98969.53;4902749;29;20052;-89
2021/12/31 01:22:16;;;;;;;0.93;0.93;;;;;;;-8.35;87.01;98977.88;4918866;29;20059;-89
2021/12/31 01:24:44;;;;;;;0.82;0.82;;;;;;;-8.36;87.15;98973.59;4901446;29;20151;-89
2021/12/31 01:27:12;;;;;;;0.95;0.95;;;;;;;-8.31;87.35;98969.63;4918728;29;20108;-89
2021/12/31 01:29:39;;;;;;;0.80;0.80;;;;;;;-8.21;87.46;98971.50;4901570;29;20052;-90
2021/12/31 01:32:07;;;;;;;0.90;0.90;;;;;;;-8.23;87.15;98960.31;4901695;29;20478;-88
2021/12/31 01:34:34;;;;;;;0.80;0.80;;;;;;;-8.27;87.05;98956.31;4919110;29;20099;-88
2021/12/31 01:37:01;;;;;;;0.77;0.77;;;;;;;-8.25;87.49;98970.94;4918022;29;20423;-88
2021/12/31 01:39:29;;;;;;;0.73;0.73;;;;;;;-8.21;87.53;98953.19;4917982;29;20558;-88
2021/12/31 01:41:58;;;;;;;0.80;0.80;;;;;;;-8.21;87.28;98964.47;4901243;29;20139;-88
2021/12/31 01:44:33;;;;;;;0.73;0.73;;;;;;;-8.25;87.34;98942.16;4918367;29;20070;-87
2021/12/31 01:47:05;;;;;;;0.80;0.80;;;;;;;-8.26;87.22;98948.31;4919274;29;20582;-88
2021/12/31 01:49:37;;;;;;;0.68;0.68;;;;;;;-8.24;87.32;98948.22;4919307;29;20068;-88
2021/12/31 01:52:06;;;;;;;0.90;0.90;;;;;;;-8.27;87.26;98953.69;4917869;29;20538;-88
2021/12/31 01:54:35;;;;;;;0.90;0.90;;;;;;;-8.27;87.28;98948.47;4900618;29;20052;-88
2021/12/31 01:57:05;;;;;;;0.98;0.98;;;;;;;-8.27;87.38;98938.81;4901156;29;20448;-89
2021/12/31 01:59:33;;;;;;;0.75;0.75;;;;;;;-8.27;87.26;98938.00;4917725;29;20487;-88
2021/12/31 02:02:00;;;;;;;0.80;0.80;;;;;;;-8.26;87.24;98931.78;4901138;29;20047;-88
2021/12/31 02:04:28;;;;;;;0.80;0.80;;;;;;;-8.26;87.22;98929.16;4925568;29;20048;-86
2021/12/31 02:06:57;;;;;;;0.73;0.73;;;;;;;-8.23;87.30;98926.28;4909341;29;20059;-86
2021/12/31 02:09:25;;;;;;;0.70;0.70;;;;;;;-8.26;87.35;98918.69;4885379;29;20052;-87
2021/12/31 02:11:54;;;;;;;1.00;1.00;;;;;;;-8.27;87.24;98917.88;4885872;29;20048;-88
2021/12/31 02:14:24;;;;;;;0.90;0.90;;;;;;;-8.23;87.51;98907.97;4918130;29;20063;-87
2021/12/31 02:16:52;;;;;;;0.70;0.70;;;;;;;-8.21;87.71;98914.72;4916524;29;20062;-86
2021/12/31 02:19:27;;;;;;;0.80;0.80;;;;;;;-8.18;87.40;98901.38;4917209;29;20056;-88
2021/12/31 02:21:55;;;;;;;0.80;0.80;;;;;;;-8.25;87.42;98909.88;4917367;29;20056;-87
2021/12/31 02:24:23;;;;;;;0.82;0.82;;;;;;;-8.29;87.68;98899.66;4916911;29;20058;-87
2021/12/31 02:26:51;;;;;;;0.82;0.82;;;;;;;-8.29;87.61;98902.28;4917498;29;20087;-88
2021/12/31 02:29:19;;;;;;;0.65;0.65;;;;;;;-8.26;87.62;98902.97;4917056;29;20056;-88
2021/12/31 02:31:46;;;;;;;0.70;0.70;;;;;;;-8.24;87.81;98904.50;4916014;29;20048;-89
2021/12/31 02:34:13;;;;;;;0.77;0.77;;;;;;;-8.22;87.73;98904.41;4921505;29;20052;-88
2021/12/31 02:36:40;;;;;;;0.70;0.70;;;;;;;-8.16;87.72;98899.47;4919676;29;20060;-90
2021/12/31 02:39:07;;;;;;;0.65;0.65;;;;;;;-8.06;87.71;98902.16;4920370;29;20060;-88
2021/12/31 02:41:35;;;;;;;0.70;0.70;;;;;;;-8.06;87.81;98899.53;4918534;29;20056;-89
2021/12/31 02:44:02;;;;;;;0.80;0.80;;;;;;;-8.11;87.41;98892.06;4917275;29;20051;-89
2021/12/31 02:46:29;;;;;;;0.80;0.80;;;;;;;-8.09;87.42;98886.69;4917208;29;20052;-89
2021/12/31 02:48:57;;;;;;;0.80;0.80;;;;;;;-8.11;87.32;98886.00;4921874;29;20055;-89
2021/12/31 02:51:26;;;;;;;0.80;0.80;;;;;;;-8.12;87.38;98884.34;4920893;29;20547;-88
2021/12/31 02:53:55;;;;;;;0.80;0.80;;;;;;;-8.12;87.42;98872.06;4902109;29;20055;-88
2021/12/31 02:56:23;;;;;;;0.80;0.80;;;;;;;-8.19;87.44;98862.25;4924581;29;20052;-87
2021/12/31 02:58:51;;;;;;;0.75;0.75;;;;;;;-8.24;87.43;98856.56;4940527;29;20084;-88
2021/12/31 03:01:18;;;;;;;0.70;0.70;;;;;;;-8.25;87.84;98860.13;4903446;29;20067;-88
2021/12/31 03:03:50;;;;;;;0.60;0.60;;;;;;;-8.23;87.96;98847.75;4928360;29;20055;-88
2021/12/31 03:06:18;;;;;;;0.90;0.90;;;;;;;-8.23;88.11;98860.84;4928956;29;20079;-86
2021/12/31 03:08:46;;;;;;;0.82;0.82;;;;;;;-8.23;88.16;98863.44;4908886;29;20079;-89
2021/12/31 03:11:13;;;;;;;0.80;0.80;;;;;;;-8.20;88.39;98865.81;4899518;29;20070;-89
2021/12/31 03:13:41;;;;;;;0.70;0.70;;;;;;;-8.20;88.27;98861.41;4916618;29;20052;-89
2021/12/31 03:16:08;;;;;;;0.68;0.68;;;;;;;-8.23;88.43;98861.66;4916689;29;20105;-88
2021/12/31 03:18:36;;;;;;;0.88;0.88;;;;;;;-8.20;88.49;98861.41;4883933;29;20052;-88
2021/12/31 03:21:10;;;;;;;0.73;0.73;;;;;;;-8.18;88.53;98856.03;4916650;29;20064;-88
2021/12/31 03:23:37;;;;;;;1.00;1.00;;;;;;;-8.18;88.68;98850.81;4916294;29;20615;-88
2021/12/31 03:26:05;;;;;;;0.90;0.90;;;;;;;-8.16;88.54;98848.88;4916815;29;20055;-88
2021/12/31 03:28:32;;;;;;;0.80;0.80;;;;;;;-8.19;88.63;98849.16;4917528;29;20146;-87
2021/12/31 03:30:59;;;;;;;0.85;0.85;;;;;;;-8.12;88.69;98847.69;4916827;29;20094;-87
2021/12/31 03:33:26;;;;;;;0.90;0.90;;;;;;;-8.06;88.76;98855.00;4917555;29;20504;-88
2021/12/31 03:35:53;;;;;;;0.93;0.93;;;;;;;-8.09;88.57;98826.47;4901367;29;20130;-87
2021/12/31 03:38:20;;;;;;;0.73;0.73;;;;;;;-8.20;88.49;98826.53;4918192;29;20435;-89
2021/12/31 03:40:47;;;;;;;1.08;1.08;;;;;;;-8.20;88.51;98818.66;4935422;29;20064;-86
2021/12/31 03:43:14;;;;;;;1.00;1.00;;;;;;;-8.22;88.55;98823.22;4938549;29;20081;-87
2021/12/31 03:45:42;;;;;;;0.93;0.93;;;;;;;-8.22;88.53;98818.00;4936979;29;20064;-89
2021/12/31 03:48:09;;;;;;;0.60;0.60;;;;;;;-8.18;89.12;98807.09;4937645;29;20084;-88
2021/12/31 03:50:36;;;;;;;0.77;0.77;;;;;;;-8.20;88.97;98800.34;4909261;29;20056;-89
2021/12/31 03:53:04;;;;;;;0.90;0.90;;;;;;;-8.19;89.23;98802.03;4916693;29;20139;-87
2021/12/31 03:55:31;;;;;;;1.10;1.10;;;;;;;-8.20;88.83;98801.19;4917872;29;20048;-89
2021/12/31 03:57:58;;;;;;;0.70;0.70;;;;;;;-8.17;88.95;98790.47;4901331;29;20464;-89
2021/12/31 04:00:28;;;;;;;0.80;0.80;;;;;;;-8.18;89.01;98795.81;4917411;29;20060;-89
2021/12/31 04:02:57;;;;;;;0.90;0.90;;;;;;;-8.16;88.99;98792.09;4884538;29;20143;-88
2021/12/31 04:05:27;;;;;;;0.50;0.50;;;;;;;-8.08;89.37;98792.28;4917547;29;20066;-89
2021/12/31 04:07:54;;;;;;;0.93;0.93;;;;;;;-8.11;89.02;98783.84;4916288;29;20112;-89
2021/12/31 04:10:25;;;;;;;0.90;0.90;;;;;;;-8.11;88.88;98789.09;4916454;29;20051;-88
2021/12/31 04:12:52;;;;;;;0.70;0.70;;;;;;;-8.09;89.02;98790.63;4916217;29;20051;-88
2021/12/31 04:15:19;;;;;;;0.65;0.65;;;;;;;-8.07;88.98;98793.94;4918244;29;20469;-89
2021/12/31 04:17:46;;;;;;;0.77;0.77;;;;;;;-8.06;88.88;98795.59;4921796;29;20067;-90
2021/12/31 04:20:20;;;;;;;0.60;0.60;;;;;;;-8.02;88.69;98796.19;4917467;29;20131;-89
2021/12/31 04:22:53;;;;;;;0.82;0.82;;;;;;;-8.02;88.69;98800.59;4915825;29;20052;-89
2021/12/31 04:25:22;;;;;;;0.82;0.82;;;;;;;-8.00;88.81;98796.88;4916456;29;20135;-87
2021/12/31 04:27:50;;;;;;;0.60;0.60;;;;;;;-7.92;88.76;98806.69;4915874;29;20056;-89
2021/12/31 04:30:18;;;;;;;0.70;0.70;;;;;;;-7.94;88.74;98801.56;4915438;29;20056;-87
2021/12/31 04:32:45;;;;;;;0.90;0.90;;;;;;;-7.91;88.67;98803.09;4916057;29;20068;-89
2021/12/31 04:35:12;;;;;;;0.80;0.80;;;;;;;-7.88;88.70;98808.91;4899310;29;20468;-89
2021/12/31 04:37:41;;;;;;;0.77;0.77;;;;;;;-7.87;88.78;98807.13;4916223;29;20468;-89
2021/12/31 04:40:10;;;;;;;0.68;0.68;;;;;;;-7.87;88.59;98805.34;4919686;29;20056;-87
2021/12/31 04:42:44;;;;;;;0.80;0.80;;;;;;;-7.80;88.46;98816.09;4920551;29;20477;-89
2021/12/31 04:45:12;;;;;;;0.70;0.70;;;;;;;-7.78;88.68;98808.94;4919505;29;20088;-90
2021/12/31 04:47:40;;;;;;;0.70;0.70;;;;;;;-7.80;88.47;98810.03;4919337;29;20054;-88
2021/12/31 04:50:07;;;;;;;0.80;0.80;;;;;;;-7.80;88.48;98805.59;4919542;29;20132;-89
2021/12/31 04:52:35;;;;;;;0.88;0.88;;;;;;;-7.79;88.38;98796.81;4919453;29;20063;-89
2021/12/31 04:55:03;;;;;;;0.70;0.70;;;;;;;-7.82;88.21;98801.47;4905096;29;20116;-88
2021/12/31 04:57:30;;;;;;;0.90;0.90;;;;;;;-7.81;88.06;98798.72;4906516;29;20055;-88
2021/12/31 04:59:57;;;;;;;0.80;0.80;;;;;;;-7.80;88.16;98789.06;4903061;29;20139;-88
2021/12/31 05:02:24;;;;;;;0.75;0.75;;;;;;;-7.81;88.15;98782.19;4919538;29;20567;-87
2021/12/31 05:04:51;;;;;;;0.70;0.70;;;;;;;-7.85;88.25;98785.06;4922421;29;20145;-86
2021/12/31 05:07:18;;;;;;;0.70;0.70;;;;;;;-7.87;87.93;98781.75;4903160;29;20085;-88
2021/12/31 05:09:46;;;;;;;0.75;0.75;;;;;;;-7.89;88.19;98783.66;4920069;29;20087;-88
2021/12/31 05:12:19;;;;;;;0.80;0.80;;;;;;;-7.91;88.31;98772.50;4915512;29;20086;-88
2021/12/31 05:14:47;;;;;;;0.55;0.55;;;;;;;-7.94;88.11;98767.53;4908189;29;20053;-88
2021/12/31 05:17:14;;;;;;;0.80;0.80;;;;;;;-7.93;88.48;98753.44;4916817;29;20044;-89
2021/12/31 05:19:43;;;;;;;0.88;0.88;;;;;;;-7.92;88.30;98764.78;4916113;29;20049;-88
2021/12/31 05:22:14;;;;;;;0.80;0.80;;;;;;;-7.94;88.35;98767.53;4904790;29;20087;-88
2021/12/31 05:24:42;;;;;;;0.63;0.63;;;;;;;-7.93;88.53;98753.44;4898031;29;20055;-86
2021/12/31 05:27:09;;;;;;;0.90;0.90;;;;;;;-7.90;88.61;98753.22;4906790;29;20048;-88
2021/12/31 05:29:36;;;;;;;0.60;0.60;;;;;;;-7.91;88.51;98742.84;4905804;29;20052;-89
2021/12/31 05:32:04;;;;;;;0.70;0.70;;;;;;;-7.90;88.43;98742.72;4908892;29;20053;-89
2021/12/31 05:34:31;;;;;;;0.70;0.70;;;;;;;-7.88;88.53;98732.91;4909988;29;20068;-91
2021/12/31 05:36:58;;;;;;;0.70;0.70;;;;;;;-7.86;88.55;98743.28;4870967;29;20060;-90
2021/12/31 05:39:26;;;;;;;0.90;0.90;;;;;;;-7.90;88.65;98752.34;4885825;29;20523;-84
2021/12/31 05:41:54;;;;;;;0.75;0.75;;;;;;;-7.89;88.67;98749.63;4917481;29;20111;-83
2021/12/31 05:44:22;;;;;;;0.70;0.70;;;;;;;-7.82;88.88;98755.16;4900575;29;20047;-84
2021/12/31 05:46:52;;;;;;;0.88;0.88;;;;;;;-7.80;88.60;98749.75;4917052;29;20059;-85
2021/12/31 05:49:27;;;;;;;0.85;0.85;;;;;;;-7.78;88.76;98751.28;4891477;29;20070;-84
2021/12/31 05:51:54;;;;;;;0.70;0.70;;;;;;;-7.78;88.68;98750.47;4913112;29;20096;-87
2021/12/31 05:54:21;;;;;;;0.80;0.80;;;;;;;-7.75;88.63;98739.72;4902295;29;20143;-85
2021/12/31 05:56:49;;;;;;;0.68;0.68;;;;;;;-7.70;88.77;98753.22;4918467;29;20051;-87
2021/12/31 05:59:16;;;;;;;0.70;0.70;;;;;;;-7.73;88.57;98746.47;4867535;29;20087;-87
2021/12/31 06:01:46;;;;;;;0.70;0.70;;;;;;;-7.73;88.60;98745.66;4903564;29;20053;-90
2021/12/31 06:04:14;;;;;;;0.70;0.70;;;;;;;-7.73;88.53;98737.78;4899905;29;20056;-90
2021/12/31 06:06:42;;;;;;;0.68;0.68;;;;;;;-7.71;88.40;98736.69;4902743;29;20055;-87
2021/12/31 06:09:11;;;;;;;0.82;0.82;;;;;;;-7.70;88.54;98732.28;4903565;29;20512;-86
2021/12/31 06:11:40;;;;;;;0.77;0.77;;;;;;;-7.63;88.53;98739.47;4922932;29;20535;-90
2021/12/31 06:14:08;;;;;;;0.70;0.70;;;;;;;-7.59;88.50;98740.03;4909781;29;20079;-86
2021/12/31 06:16:40;;;;;;;0.73;0.73;;;;;;;-7.59;88.50;98737.41;4875683;29;20059;-85
2021/12/31 06:19:12;;;;;;;0.73;0.73;;;;;;;-7.63;88.47;98730.78;4901648;29;20143;-86
2021/12/31 06:21:41;;;;;;;0.70;0.70;;;;;;;-7.56;88.42;98731.88;4892052;29;20057;-87
2021/12/31 06:24:09;;;;;;;0.70;0.70;;;;;;;-7.53;88.36;98731.63;4922260;29;20078;-88
2021/12/31 06:26:37;;;;;;;0.80;0.80;;;;;;;-7.51;88.05;98737.56;4918480;29;20079;-89
2021/12/31 06:29:04;;;;;;;0.70;0.70;;;;;;;-7.49;88.14;98735.63;4921326;29;20052;-87
2021/12/31 06:31:31;;;;;;;0.80;0.80;;;;;;;-7.47;87.87;98736.31;4909369;29;20048;-90
2021/12/31 06:33:58;;;;;;;0.70;0.70;;;;;;;-7.42;88.19;98739.38;4922912;29;20504;-88
2021/12/31 06:36:25;;;;;;;0.80;0.80;;;;;;;-7.41;87.96;98738.38;4919152;29;20058;-87
2021/12/31 06:38:53;;;;;;;0.80;0.80;;;;;;;-7.40;87.83;98736.59;4882477;29;20057;-88
2021/12/31 06:41:20;;;;;;;0.63;0.63;;;;;;;-7.39;87.90;98726.94;4902386;29;20144;-89
2021/12/31 06:43:48;;;;;;;0.82;0.82;;;;;;;-7.41;87.79;98729.69;4903599;29;20083;-92
2021/12/31 06:46:16;;;;;;;0.73;0.73;;;;;;;-7.41;87.88;98748.06;4892616;29;20052;-88
2021/12/31 06:48:43;;;;;;;0.80;0.80;;;;;;;-7.36;87.60;98724.06;4902913;29;20059;-88
2021/12/31 06:51:11;;;;;;;0.80;0.80;;;;;;;-7.34;87.72;98730.81;4902572;29;20049;-89
2021/12/31 06:53:38;;;;;;;0.60;0.60;;;;;;;-7.30;87.66;98731.34;4902436;29;20060;-90
2021/12/31 06:56:06;;;;;;;0.70;0.70;;;;;;;-7.28;87.46;98721.56;4864586;29;20055;-89
2021/12/31 06:58:33;;;;;;;0.80;0.80;;;;;;;-7.29;87.65;98715.50;4882985;29;20064;-87
2021/12/31 07:01:00;;;;;;;0.60;0.60;;;;;;;-7.31;87.45;98721.84;4902536;29;20060;-87
2021/12/31 07:03:33;;;;;;;0.70;0.70;;;;;;;-7.34;87.75;98711.59;4904531;29;20052;-90
2021/12/31 07:06:01;;;;;;;0.90;0.90;;;;;;;-7.29;88.09;98712.88;4869183;29;20083;-87
2021/12/31 07:08:28;;;;;;;0.80;0.80;;;;;;;-7.28;87.74;98708.44;4899330;29;20052;-88
2021/12/31 07:10:55;;;;;;;0.65;0.65;;;;;;;-7.35;87.67;98695.06;4883880;29;20048;-85
2021/12/31 07:13:22;;;;;;;0.75;0.75;;;;;;;-7.33;87.57;98692.31;4897908;29;20093;-84
2021/12/31 07:15:50;;;;;;;0.80;0.80;;;;;;;-7.29;87.62;98698.91;4901387;29;20044;-90
2021/12/31 07:18:19;;;;;;;0.60;0.60;;;;;;;-7.28;87.79;98690.09;4893871;29;20089;-88
2021/12/31 07:20:46;;;;;;;0.73;0.73;;;;;;;-7.24;87.71;98699.31;4881835;29;20060;-91
2021/12/31 07:23:38;;;;;;;0.70;0.70;;;;;;;-7.19;87.78;98681.38;4898251;29;20144;-91
2021/12/31 07:26:07;;;;;;;0.90;0.90;;;;;;;-7.23;87.47;98687.88;4907215;29;20055;-89
2021/12/31 07:28:34;;;;;;;0.93;0.93;;;;;;;-7.24;87.36;98676.56;4898101;29;20079;-88
2021/12/31 07:31:01;;;;;;;0.80;0.80;;;;;;;-7.20;87.51;98682.34;4889490;29;20060;-88
2021/12/31 07:33:28;;;;;;;1.05;1.05;;;;;;;-7.21;87.55;98678.91;4875950;29;20534;-88
2021/12/31 07:35:57;;;;;;;0.80;0.80;;;;;;;-7.17;87.59;98689.13;4892687;29;20165;-89
2021/12/31 07:38:35;;;;;;;0.90;0.90;;;;;;;-7.17;87.65;98681.25;4917948;29;20068;-90
2021/12/31 07:41:03;;;;;;;0.75;0.75;;;;;;;-7.12;87.45;98673.78;4908919;29;20052;-91
2021/12/31 07:43:30;;;;;;;0.70;0.70;;;;;;;-7.12;87.67;98677.22;4901971;29;20056;-92
2021/12/31 07:45:58;;;;;;;0.73;0.73;;;;;;;-7.10;87.57;98677.09;4926092;29;20428;-91
2021/12/31 07:48:26;;;;;;;0.70;0.70;;;;;;;-7.03;87.45;98668.53;4925104;29;20033;-92
2021/12/31 07:50:54;;;;;;;0.95;0.95;;;;;;;-7.00;87.58;98667.41;4897820;29;20059;-89
2021/12/31 07:53:24;;;;;;;0.80;0.80;;;;;;;-6.98;87.28;98668.94;4895759;29;20044;-90
2021/12/31 07:55:51;;;;;;;0.75;0.75;;;;;;;-6.98;87.39;98668.94;4926995;29;20056;-91
2021/12/31 07:58:20;;;;;;;0.80;0.80;;;;;;;-6.93;87.57;98675.56;4927812;29;20427;-88
2021/12/31 08:00:49;;;;;;;0.90;0.90;;;;;;;-6.95;87.11;98659.13;4862472;29;20048;-92
2021/12/31 08:03:18;;;;;;;0.80;0.80;;;;;;;-6.93;87.42;98660.66;4882857;29;20067;-89
2021/12/31 08:05:46;;;;;;;0.80;0.80;;;;;;;-6.87;87.16;98661.88;4921996;29;20112;-89
2021/12/31 08:08:13;;;;;;;0.90;0.90;;;;;;;-6.82;87.11;98665.72;4900106;29;20063;-91
2021/12/31 08:10:40;;;;;;;0.70;0.70;;;;;;;-6.77;87.20;98657.41;4916316;29;20052;-88
2021/12/31 08:13:23;;;;;;;0.85;0.85;;;;;;;-6.78;86.67;98658.41;4906661;29;20664;-89
2021/12/31 08:15:50;;;;;;;0.80;0.80;;;;;;;-6.82;86.74;98646.53;4910103;29;20499;-89
2021/12/31 08:18:17;;;;;;;0.73;0.73;;;;;;;-6.76;86.96;98652.03;4899411;29;20048;-88
2021/12/31 08:20:44;;;;;;;0.80;0.80;;;;;;;-6.68;86.83;98650.47;4910832;29;20468;-91
2021/12/31 08:23:12;;;;;;;0.70;0.70;;;;;;;-6.69;86.57;98644.41;4914055;29;20139;-90
2021/12/31 08:25:40;;;;;;;0.82;0.82;;;;;;;-6.63;86.65;98633.34;4910895;29;20051;-89
2021/12/31 08:28:10;;;;;;;0.60;0.60;;;;;;;-6.73;86.43;98629.94;4914816;29;20530;-89
2021/12/31 08:30:38;;;;;;;0.65;0.65;;;;;;;-6.69;86.40;98623.41;4912962;29;20124;-90
2021/12/31 08:33:05;;;;;;;0.80;0.80;;;;;;;-6.67;86.34;98623.28;4920440;29;20037;-87
2021/12/31 08:35:32;;;;;;;0.90;0.90;;;;;;;-6.65;86.43;98614.28;4902176;29;20508;-88
2021/12/31 08:38:00;;;;;;;0.75;0.75;;;;;;;-6.63;86.52;98604.47;4898782;29;20080;-88
2021/12/31 08:40:27;;;;;;;0.90;0.90;;;;;;;-6.62;86.10;98613.97;4890014;29;20036;-89
2021/12/31 08:42:54;;;;;;;0.60;0.60;;;;;;;-6.54;86.34;98614.06;4919624;29;20058;-91
2021/12/31 08:45:30;;;;;;;0.60;0.60;;;;;;;-6.55;86.21;98611.63;4936667;29;20120;-87
2021/12/31 08:47:58;;;;;;;0.80;0.80;;;;;;;-6.48;86.25;98611.84;4912130;29;20052;-89
2021/12/31 08:50:27;;;;;;;0.70;0.70;;;;;;;-6.39;86.17;98603.09;4929585;29;20124;-87
2021/12/31 08:52:54;;;;;;;0.75;0.75;;;;;;;-6.35;85.86;98604.47;4914040;29;20056;-91
2021/12/31 08:55:22;;;;;;;0.80;0.80;;;;;;;-6.39;85.87;98596.03;4883236;29;20063;-92
2021/12/31 08:57:51;;;;;;;0.77;0.77;;;;;;;-6.36;85.73;98592.28;4911777;29;20079;-86
2021/12/31 09:00:19;;;;;;;1.00;1.00;;;;;;;-6.35;85.74;98592.16;4920648;29;20064;-88
2021/12/31 09:02:48;;;;;;;0.73;0.73;;;;;;;-6.38;85.57;98565.34;4920628;29;20086;-87
2021/12/31 09:05:17;;;;;;;0.88;0.88;;;;;;;-6.41;85.22;98578.78;4920008;29;20044;-87
2021/12/31 09:07:44;;;;;;;0.63;0.63;;;;;;;-6.41;85.30;98584.03;4922583;29;20052;-92
2021/12/31 09:10:12;;;;;;;0.70;0.70;;;;;;;-6.37;85.23;98585.41;4917002;29;20570;-86
2021/12/31 09:12:40;;;;;;;0.60;0.60;;;;;;;-6.33;85.32;98579.72;4923535;29;20515;-87
2021/12/31 09:15:07;;;;;;;0.77;0.77;;;;;;;-6.28;85.12;98554.78;4925927;29;20044;-88
2021/12/31 09:17:35;;;;;;;0.80;0.80;;;;;;;-6.35;84.99;98560.66;4924895;29;20052;-87
2021/12/31 09:20:04;;;;;;;0.75;0.75;;;;;;;-6.33;85.28;98555.22;4882045;29;20053;-87
2021/12/31 09:22:31;;;;;;;0.80;0.80;;;;;;;-6.31;85.22;98555.91;4908156;29;20139;-87
2021/12/31 09:24:58;;;;;;;0.68;0.68;;;;;;;-6.27;85.26;98566.97;4572896;29;9999769;-90
2021/12/31 09:27:27;;;;;;;0.80;0.80;;;;;;;-6.22;85.02;98557.66;4918053;29;20048;-89
2021/12/31 09:29:54;;;;;;;1.00;1.00;;;;;;;-6.14;84.89;98549.84;4915710;29;20112;-89
2021/12/31 09:32:22;;;;;;;0.80;0.80;;;;;;;-6.06;84.79;98551.72;4918413;29;20044;-89
2021/12/31 09:34:53;;;;;;;0.80;0.80;;;;;;;-6.04;84.59;98554.22;4903642;29;20104;-90
2021/12/31 09:37:20;;;;;;;0.70;0.70;;;;;;;-5.97;84.49;98555.28;4901434;29;20120;-85
2021/12/31 09:39:48;;;;;;;0.93;0.93;;;;;;;-5.92;84.38;98545.13;4910133;29;20057;-88
2021/12/31 09:42:15;;;;;;;0.60;0.60;;;;;;;-6.01;84.13;98543.41;4920791;29;20460;-90
2021/12/31 09:44:48;;;;;;;0.80;0.80;;;;;;;-6.03;84.18;98537.47;4919313;29;20068;-90
2021/12/31 09:47:18;;;;;;;0.70;0.70;;;;;;;-6.09;84.10;98527.56;4921875;29;20085;-90
2021/12/31 09:49:47;;;;;;;0.80;0.80;;;;;;;-6.05;84.18;98535.00;4918810;29;20032;-90
2021/12/31 09:52:17;;;;;;;0.60;0.60;;;;;;;-5.99;84.13;98537.03;4923546;29;20052;-90
2021/12/31 09:54:47;;;;;;;0.63;0.63;;;;;;;-5.98;84.29;98535.22;4911968;29;20049;-92
2021/12/31 09:57:20;;;;;;;0.70;0.70;;;;;;;-5.93;84.23;98539.00;4907044;29;20377;-90
2021/12/31 09:59:48;;;;;;;0.80;0.80;;;;;;;-5.96;84.17;98530.66;4920459;29;20067;-88
2021/12/31 10:02:28;;;;;;;0.73;0.73;;;;;;;-5.96;84.19;98530.66;4921595;29;20060;-90
2021/12/31 10:05:21;;;;;;;0.68;0.68;;;;;;;-5.90;84.56;98530.00;4910697;29;20067;-89
2021/12/31 10:07:49;;;;;;;0.60;0.60;;;;;;;-5.86;84.26;98531.34;4901418;29;20054;-85
2021/12/31 10:10:21;;;;;;;0.80;0.80;;;;;;;-5.90;84.23;98530.00;4894235;29;20093;-89
2021/12/31 10:12:58;;;;;;;0.75;0.75;;;;;;;-5.89;84.28;98531.66;4888543;29;20025;-91
2021/12/31 10:15:26;;;;;;;0.70;0.70;;;;;;;-5.95;84.25;98533.13;4909213;29;20067;-92
2021/12/31 10:17:54;;;;;;;0.70;0.70;;;;;;;-5.99;84.17;98517.81;4913566;29;20071;-91
2021/12/31 10:20:22;;;;;;;0.70;0.70;;;;;;;-6.07;84.30;98529.06;4902163;29;20047;-91
2021/12/31 10:23:19;;;;;;;0.77;0.77;;;;;;;-6.03;84.37;98524.34;4883760;29;20062;-91
2021/12/31 10:25:47;;;;;;;0.67;0.67;;;;;;;-6.00;84.55;98518.78;4890902;29;20551;-86
2021/12/31 10:28:16;;;;;;;0.60;0.60;;;;;;;-5.94;84.52;98516.38;4919681;29;20143;-92
2021/12/31 10:30:43;;;;;;;0.70;0.70;;;;;;;-5.94;84.59;98510.31;4900906;29;20104;-91
2021/12/31 10:33:11;;;;;;;0.70;0.70;;;;;;;-5.94;84.43;98513.75;4925741;29;20059;-90
2021/12/31 10:35:44;;;;;;;0.50;0.50;;;;;;;-5.92;84.53;98516.22;4932353;29;20059;-92
2021/12/31 10:38:12;;;;;;;0.80;0.80;;;;;;;-5.93;84.49;98502.22;4934652;29;20056;-91
2021/12/31 10:41:00;;;;;;;0.80;0.80;;;;;;;-5.92;84.42;98498.63;4902727;29;20048;-92
2021/12/31 10:43:29;;;;;;;0.60;0.60;;;;;;;-5.95;84.39;98498.97;4927043;29;20048;-92
2021/12/31 10:46:10;;;;;;;0.60;0.60;;;;;;;-5.89;84.48;98505.38;4932564;29;20075;-92
2021/12/31 10:48:42;;;;;;;0.70;0.70;;;;;;;-5.90;84.24;98501.94;4930808;29;20048;-92
2021/12/31 10:51:16;;;;;;;0.60;0.60;;;;;;;-5.88;84.42;98497.31;4911183;29;20100;-93
2021/12/31 10:54:45;;;;;;;0.70;0.70;;;;;;;-5.83;84.40;98483.72;4882597;29;20080;-93
2021/12/31 10:57:38;;;;;;;0.68;0.68;;;;;;;-5.88;84.29;98483.38;4895835;29;20533;-90
2021/12/31 11:00:16;;;;;;;0.80;0.80;;;;;;;-5.95;84.27;98458.69;4876962;29;20078;-90
2021/12/31 11:02:45;;;;;;;0.60;0.60;;;;;;;-5.90;84.58;98469.53;4907023;29;20104;-88
2021/12/31 11:05:17;;;;;;;0.90;0.90;;;;;;;-5.92;84.42;98456.59;4920621;29;20120;-93
2021/12/31 11:07:45;;;;;;;0.70;0.70;;;;;;;-5.92;84.88;98461.00;4921264;29;20063;-92
2021/12/31 11:10:39;;;;;;;;;;;;;;;-5.94;85.09;98455.13;4911436;29;20059;-93
2021/12/31 11:13:31;;;;;;;0.50;0.50;;;;;;;-5.94;84.79;98442.78;4923373;29;19927;-91
2021/12/31 11:15:59;;;;;;;0.65;0.65;;;;;;;-5.99;84.87;98442.44;4923238;29;20447;-87
2021/12/31 11:18:27;;;;;;;0.60;0.60;;;;;;;-5.95;84.95;98443.78;4901336;29;20513;-92
2021/12/31 11:21:01;;;;;;;0.68;0.68;;;;;;;-5.95;85.18;98442.94;4920177;29;20087;-91
2021/12/31 11:23:36;;;;;;;0.68;0.68;;;;;;;-6.00;85.37;98437.31;4887637;29;20049;-90
2021/12/31 11:26:26;;;;;;;0.82;0.82;;;;;;;-6.02;85.49;98437.50;4898203;29;20542;-91
2021/12/31 11:28:55;;;;;;;0.75;0.75;;;;;;;-6.02;85.45;98426.97;4921610;29;20052;-94
2021/12/31 11:31:24;;;;;;;0.70;0.70;;;;;;;-5.99;85.66;98423.22;4922504;29;20052;-93
2021/12/31 11:34:03;;;;;;;0.70;0.70;;;;;;;-5.98;85.60;98427.47;4916682;29;20051;-92
2021/12/31 11:36:41;;;;;;;0.70;0.70;;;;;;;-6.04;85.56;98420.22;4894235;29;20492;-93
2021/12/31 11:39:32;;;;;;;0.70;0.70;;;;;;;-6.03;85.71;98421.88;4896064;29;20059;-91
2021/12/31 11:42:05;;;;;;;0.70;0.70;;;;;;;-6.05;85.85;98415.94;4918517;29;20048;-90
2021/12/31 11:45:07;;;;;;;0.70;0.70;;;;;;;-5.99;86.06;98410.09;4902081;29;20045;-92
2021/12/31 11:47:37;;;;;;;0.65;0.65;;;;;;;-6.03;85.90;98393.78;4873728;29;20108;-92